Time;durP1;ratioP1;P1;durP2;ratioP2;P2;SDS_P1;SDS_P2;PMS_P1;PMS_P2;Temp;Humidity;BMP_temperature;BMP_pressure;BME280_temperature;BME280_humidity;BME280_pressure;Samples;Min_cycle;Max_cycle;Signal;HPM_P1;HPM_P2
2023/01/07 00:02:09;;;;;;;15.80;9.57;;;;;;;4.51;100.00;100851.30;3624654;80;98550;-94
2023/01/07 00:07:09;;;;;;;16.47;8.77;;;;;;;4.41;100.00;100839.94;3633983;80;32448;-95
2023/01/07 00:12:10;;;;;;;18.00;9.00;;;;;;;4.44;100.00;100856.47;3623299;80;98565;-94
2023/01/07 00:17:11;;;;;;;16.60;9.37;;;;;;;4.40;100.00;100857.42;3631344;81;27387;-93
2023/01/07 00:22:11;;;;;;;17.93;9.63;;;;;;;4.38;100.00;100850.95;3617054;80;99167;-93
2023/01/07 00:27:12;;;;;;;16.67;9.77;;;;;;;4.38;100.00;100846.05;3640490;80;26711;-94
2023/01/07 00:32:13;;;;;;;21.17;10.83;;;;;;;4.38;100.00;100848.23;3599892;81;98756;-93
2023/01/07 00:37:48;;;;;;;17.93;9.70;;;;;;;4.38;100.00;100849.59;3613423;81;26491;-93
2023/01/07 00:47:38;;;;;;;28.32;12.93;;;;;;;4.38;100.00;100846.05;3634619;81;32407;-93
2023/01/07 00:52:39;;;;;;;22.23;12.63;;;;;;;4.38;100.00;100849.59;3629162;80;98795;-95
2023/01/07 00:57:41;;;;;;;25.70;13.17;;;;;;;4.39;100.00;100853.10;3649149;79;25713;-94
2023/01/07 01:02:42;;;;;;;25.63;12.23;;;;;;;4.40;100.00;100845.16;3643980;80;98861;-94
2023/01/07 01:07:44;;;;;;;40.33;17.07;;;;;;;4.52;100.00;100857.53;3637626;80;26137;-93
2023/01/07 01:12:48;;;;;;;44.53;18.90;;;;;;;4.56;100.00;100858.48;3645968;79;98838;-93
2023/01/07 01:17:50;;;;;;;46.33;19.52;;;;;;;4.71;100.00;100862.86;3647457;79;33720;-93
2023/01/07 01:22:51;;;;;;;42.80;17.40;;;;;;;4.83;100.00;100855.33;3653028;79;98666;-93
2023/01/07 01:27:52;;;;;;;37.40;16.00;;;;;;;4.91;100.00;100862.10;3654746;80;25981;-92
2023/01/07 01:32:53;;;;;;;32.87;15.03;;;;;;;4.99;100.00;100870.00;3645791;80;98727;-93
2023/01/07 01:37:53;;;;;;;32.73;13.40;;;;;;;5.05;100.00;100870.86;3635552;80;25985;-93
2023/01/07 01:42:54;;;;;;;35.93;13.67;;;;;;;5.08;100.00;100848.95;3647115;80;98597;-94
2023/01/07 01:48:00;;;;;;;31.20;13.30;;;;;;;5.10;100.00;100846.13;3645755;80;26618;-93
2023/01/07 01:53:06;;;;;;;;;;;;;;;5.09;100.00;100845.89;3655809;80;98847;-93
2023/01/07 01:58:13;;;;;;;31.50;13.72;;;;;;;5.09;100.00;100854.08;3657894;78;32371;-93
2023/01/07 02:03:18;;;;;;;36.98;10.13;;;;;;;5.05;100.00;100864.05;3664891;78;98718;-93
2023/01/07 02:08:22;;;;;;;26.55;11.60;;;;;;;5.12;100.00;100878.54;3669022;80;31653;-92
2023/01/07 02:13:34;;;;;;;39.48;11.73;;;;;;;5.09;100.00;100877.82;3664943;78;99016;-93
2023/01/07 02:18:43;;;;;;;42.13;12.80;;;;;;;5.10;100.00;100879.41;3668227;78;29645;-94
2023/01/07 02:24:22;;;;;;;37.80;12.90;;;;;;;5.11;100.00;100874.19;3660200;80;98716;-94
2023/01/07 02:29:46;;;;;;;48.00;13.55;;;;;;;5.14;100.00;100863.41;3604267;78;31690;-93
2023/01/07 02:35:04;;;;;;;37.13;12.90;;;;;;;5.18;100.00;100861.63;3655135;80;98661;-95
2023/01/07 02:40:41;;;;;;;28.87;12.35;;;;;;;5.23;100.00;100857.92;3680636;78;32411;-96
2023/01/07 02:45:53;;;;;;;30.43;12.57;;;;;;;5.30;100.00;100852.73;3660849;78;98747;-94
2023/01/07 02:50:53;;;;;;;27.35;12.05;;;;;;;5.35;100.00;100851.18;3640190;78;58314;-88
2023/01/07 02:56:35;;;;;;;30.67;12.00;;;;;;;5.39;100.00;100856.19;3490702;83;98528;-88
2023/01/07 03:02:19;;;;;;;38.47;13.60;;;;;;;5.42;100.00;100859.08;3489940;83;98951;-89
2023/01/07 03:07:53;;;;;;;31.62;11.83;;;;;;;5.48;100.00;100864.57;3500301;84;31978;-90
2023/01/07 03:12:59;;;;;;;30.48;10.40;;;;;;;5.56;100.00;100871.10;3486813;84;99340;-90
2023/01/07 03:18:05;;;;;;;39.95;12.35;;;;;;;5.57;100.00;100876.79;3496001;83;32562;-89
2023/01/07 03:23:10;;;;;;;25.57;11.67;;;;;;;5.58;100.00;100869.64;3490865;83;98996;-90
2023/01/07 03:28:15;;;;;;;26.82;10.98;;;;;;;5.61;100.00;100877.70;3484560;84;30580;-90
2023/01/07 03:33:24;;;;;;;26.02;11.40;;;;;;;5.61;100.00;100879.88;3486870;84;98728;-89
2023/01/07 03:38:26;;;;;;;29.70;11.83;;;;;;;5.66;100.00;100880.23;3500968;83;32324;-90
2023/01/07 03:43:27;;;;;;;30.85;12.58;;;;;;;5.68;100.00;100874.67;3485300;83;98706;-89
2023/01/07 03:48:28;;;;;;;28.70;11.17;;;;;;;5.70;100.00;100874.34;3497764;83;25911;-89
2023/01/07 03:53:29;;;;;;;28.00;11.73;;;;;;;5.61;100.00;100847.67;3476777;84;98598;-87
2023/01/07 03:58:30;;;;;;;31.20;11.13;;;;;;;5.73;100.00;100857.31;3467355;84;26442;-90
2023/01/07 04:03:31;;;;;;;34.30;10.83;;;;;;;5.70;100.00;100849.77;3467318;83;98995;-90
2023/01/07 04:08:32;;;;;;;36.40;10.17;;;;;;;5.68;100.00;100846.00;3478465;84;26623;-89
2023/01/07 04:13:32;;;;;;;37.43;10.80;;;;;;;5.68;100.00;100847.95;3475417;83;99076;-90
2023/01/07 04:18:33;;;;;;;24.53;9.83;;;;;;;5.65;100.00;100849.97;3471819;84;25978;-89
2023/01/07 04:23:34;;;;;;;27.20;10.32;;;;;;;5.64;100.00;100850.55;3466118;84;98933;-89
2023/01/07 04:28:35;;;;;;;22.23;10.17;;;;;;;5.64;100.00;100860.11;3457573;84;33535;-90
2023/01/07 04:33:36;;;;;;;33.93;10.33;;;;;;;5.67;100.00;100861.38;3479293;83;98045;-88
2023/01/07 04:38:36;;;;;;;31.77;10.20;;;;;;;5.66;100.00;100850.20;3463842;84;32874;-90
2023/01/07 04:43:37;;;;;;;34.57;10.93;;;;;;;5.65;100.00;100837.13;3462055;84;98882;-90
2023/01/07 04:48:38;;;;;;;25.93;12.37;;;;;;;5.67;100.00;100848.50;3474685;84;32827;-90
2023/01/07 04:53:39;;;;;;;25.20;11.20;;;;;;;5.68;100.00;100849.31;3449766;84;98622;-90
2023/01/07 04:58:40;;;;;;;26.63;10.50;;;;;;;5.70;100.00;100850.58;3446695;84;32887;-90
2023/01/07 05:03:40;;;;;;;25.63;10.07;;;;;;;5.71;100.00;100841.25;3424194;84;98966;-90
2023/01/07 05:08:41;;;;;;;29.83;11.23;;;;;;;5.73;100.00;100834.09;3445117;85;31689;-89
2023/01/07 05:13:42;;;;;;;31.10;11.57;;;;;;;5.74;100.00;100833.73;3446403;83;99064;-88
2023/01/07 05:18:44;;;;;;;32.88;11.22;;;;;;;5.77;100.00;100834.45;3461827;84;33350;-88
2023/01/07 05:23:44;;;;;;;26.77;10.70;;;;;;;5.77;100.00;100844.01;3451184;83;98661;-90
2023/01/07 05:28:45;;;;;;;40.50;11.33;;;;;;;5.77;100.00;100839.09;3465772;85;31534;-90
2023/01/07 05:33:46;;;;;;;29.53;12.10;;;;;;;5.79;100.00;100836.27;3447534;85;98614;-88
2023/01/07 05:38:47;;;;;;;32.53;12.90;;;;;;;5.81;100.00;100842.24;3470618;85;31635;-90
2023/01/07 05:43:48;;;;;;;27.47;12.13;;;;;;;5.82;100.00;100837.56;3456724;84;98876;-90
2023/01/07 05:48:49;;;;;;;29.07;11.93;;;;;;;5.81;100.00;100846.89;3456330;84;31156;-89
2023/01/07 05:53:50;;;;;;;31.53;12.30;;;;;;;5.81;100.00;100849.63;3455238;83;99065;-90
2023/01/07 05:58:50;;;;;;;41.07;13.07;;;;;;;5.82;100.00;100846.56;3449821;83;32019;-90
2023/01/07 06:03:51;;;;;;;36.57;13.37;;;;;;;5.84;100.00;100860.67;3452091;83;98869;-88
2023/01/07 06:08:52;;;;;;;34.83;13.63;;;;;;;5.83;100.00;100861.03;3452686;85;35500;-90
2023/01/07 06:13:53;;;;;;;37.03;14.90;;;;;;;5.80;100.00;100858.96;3456957;83;98725;-91
2023/01/07 06:18:53;;;;;;;54.30;17.30;;;;;;;5.81;100.00;100869.55;3466814;85;34808;-91
2023/01/07 06:23:55;;;;;;;40.67;15.67;;;;;;;5.81;100.00;100868.74;3460148;85;99011;-89
2023/01/07 06:28:56;;;;;;;33.30;14.17;;;;;;;5.83;100.00;100871.37;3463886;85;34915;-89
2023/01/07 06:33:56;;;;;;;38.75;15.13;;;;;;;5.88;100.00;100875.83;3458971;85;98709;-89
2023/01/07 06:38:57;;;;;;;35.92;14.13;;;;;;;5.89;100.00;100878.81;3452101;85;34901;-90
2023/01/07 06:43:58;;;;;;;42.77;15.77;;;;;;;5.89;100.00;100870.62;3453501;85;98860;-90
2023/01/07 06:48:59;;;;;;;32.67;14.57;;;;;;;5.87;100.00;100872.31;3458380;83;25800;-91
2023/01/07 06:53:59;;;;;;;31.20;13.38;;;;;;;5.86;100.00;100868.55;3467327;83;98879;-89
2023/01/07 06:59:00;;;;;;;29.83;13.57;;;;;;;5.90;100.00;100885.87;3478366;83;32444;-89
2023/01/07 07:04:01;;;;;;;39.03;13.30;;;;;;;5.90;100.00;100885.87;3482818;83;98723;-89
2023/01/07 07:09:02;;;;;;;25.40;12.67;;;;;;;5.85;100.00;100892.89;3485821;82;32484;-91
2023/01/07 07:14:03;;;;;;;39.77;13.43;;;;;;;5.82;100.00;100888.09;3471003;83;98710;-89
2023/01/07 07:19:04;;;;;;;40.67;13.50;;;;;;;5.81;100.00;100885.13;3491817;83;33055;-88
2023/01/07 07:24:05;;;;;;;27.70;12.60;;;;;;;5.77;100.00;100890.98;3479102;83;98960;-88
2023/01/07 07:29:07;;;;;;;30.10;12.30;;;;;;;5.71;100.00;100885.50;3481219;83;31099;-90
2023/01/07 07:34:09;;;;;;;30.25;14.53;;;;;;;5.71;100.00;100884.94;3479029;83;98755;-87
2023/01/07 07:39:11;;;;;;;27.87;14.20;;;;;;;5.69;100.00;100891.31;3489111;83;32547;-89
2023/01/07 07:44:12;;;;;;;28.17;12.60;;;;;;;5.62;100.00;100905.27;3461399;83;98592;-90
2023/01/07 07:49:13;;;;;;;22.97;11.03;;;;;;;5.58;100.00;100898.86;3481592;83;26315;-91
2023/01/07 07:54:14;;;;;;;24.23;11.80;;;;;;;5.56;100.00;100902.50;3472318;83;98920;-91
2023/01/07 07:59:14;;;;;;;28.93;12.63;;;;;;;5.57;100.00;100904.09;3473351;85;26282;-90
2023/01/07 08:04:15;;;;;;;34.23;12.90;;;;;;;5.61;100.00;100912.64;3452119;83;98743;-88
2023/01/07 08:09:16;;;;;;;30.13;12.87;;;;;;;5.64;100.00;100914.72;3463719;85;26431;-89
2023/01/07 08:14:17;;;;;;;29.17;11.83;;;;;;;5.65;100.00;100895.84;3453422;85;98648;-90
2023/01/07 08:19:18;;;;;;;26.53;10.97;;;;;;;5.67;100.00;100892.20;3458605;84;26044;-89
2023/01/07 08:24:18;;;;;;;27.73;12.18;;;;;;;5.70;100.00;100889.36;3455379;85;99025;-89
2023/01/07 08:29:19;;;;;;;28.23;13.47;;;;;;;5.70;100.00;100870.25;3462768;85;33529;-89
2023/01/07 08:34:20;;;;;;;36.37;14.57;;;;;;;5.75;100.00;100872.23;3455449;85;99025;-90
2023/01/07 08:39:21;;;;;;;42.63;13.20;;;;;;;5.79;100.00;100861.43;3456762;85;33002;-89
2023/01/07 08:44:21;;;;;;;45.60;20.73;;;;;;;5.82;100.00;100860.78;3457220;83;98701;-89
2023/01/07 08:49:22;;;;;;;31.00;14.40;;;;;;;5.84;100.00;100855.21;3461636;85;33167;-89
2023/01/07 08:54:23;;;;;;;38.77;15.27;;;;;;;5.81;100.00;100855.90;3464628;84;98561;-88
2023/01/07 08:59:24;;;;;;;31.63;15.90;;;;;;;5.88;100.00;100848.51;3461004;84;32938;-89
2023/01/07 09:04:25;;;;;;;59.45;16.07;;;;;;;5.95;100.00;100864.59;3445436;83;98739;-89
2023/01/07 09:09:26;;;;;;;42.20;15.50;;;;;;;6.02;100.00;100866.79;3458562;85;31652;-92
2023/01/07 09:14:26;;;;;;;87.03;17.97;;;;;;;6.07;100.00;100864.66;3455185;83;98886;-90
2023/01/07 09:19:27;;;;;;;47.80;16.27;;;;;;;6.12;100.00;100865.02;3457930;85;32294;-89
2023/01/07 09:24:28;;;;;;;33.47;15.13;;;;;;;6.11;100.00;100860.69;3456700;84;98447;-92
2023/01/07 09:29:29;;;;;;;30.77;16.30;;;;;;;6.17;100.00;100856.02;3460694;83;32143;-90
2023/01/07 09:34:30;;;;;;;47.70;17.83;;;;;;;6.26;100.00;100860.03;3455055;85;98732;-89
2023/01/07 09:39:31;;;;;;;40.83;18.13;;;;;;;6.30;100.00;100865.87;3458668;83;31651;-90
2023/01/07 09:45:02;;;;;;;46.37;18.67;;;;;;;6.32;100.00;100862.22;3448203;83;98746;-92
2023/01/07 09:50:27;;;;;;;38.88;18.48;;;;;;;6.34;100.00;100868.72;3458744;85;32963;-92
2023/01/07 09:55:35;;;;;;;52.40;21.30;;;;;;;6.38;100.00;100864.96;3441569;84;98740;-89
2023/01/07 10:00:39;;;;;;;49.58;19.90;;;;;;;6.46;100.00;100865.45;3464703;85;33496;-91
2023/01/07 10:06:09;;;;;;;47.75;19.00;;;;;;;6.49;100.00;100856.55;3462666;83;98534;-91
2023/01/07 10:11:33;;;;;;;36.13;19.03;;;;;;;6.52;100.00;100849.61;3454705;85;98864;-91
2023/01/07 10:16:51;;;;;;;47.78;20.85;;;;;;;6.54;100.00;100854.97;3461663;85;32602;-90
2023/01/07 10:22:03;;;;;;;36.28;19.20;;;;;;;6.57;100.00;100852.94;3455560;85;98650;-90
2023/01/07 10:27:11;;;;;;;42.73;18.60;;;;;;;6.54;100.00;100844.63;3464032;85;32946;-90
2023/01/07 10:32:16;;;;;;;39.98;20.65;;;;;;;6.60;100.00;100837.20;3453196;85;98845;-92
2023/01/07 10:37:37;;;;;;;39.08;20.70;;;;;;;6.65;100.00;100832.09;3462973;83;33303;-90
2023/01/07 10:43:24;;;;;;;37.83;19.52;;;;;;;6.69;100.00;100828.33;3446463;85;99026;-90
2023/01/07 10:49:02;;;;;;;38.80;19.82;;;;;;;6.77;100.00;100832.88;3451722;85;32956;-91
2023/01/07 10:54:24;;;;;;;46.60;24.80;;;;;;;6.81;100.00;100836.53;3452894;84;98592;-90
2023/01/07 10:59:25;;;;;;;39.30;21.90;;;;;;;6.87;100.00;100826.17;3457906;85;32953;-90
2023/01/07 11:04:26;;;;;;;35.53;21.23;;;;;;;6.92;100.00;100825.36;3457324;83;98504;-90
2023/01/07 11:09:43;;;;;;;36.73;20.43;;;;;;;6.97;100.00;100818.85;3465384;84;32164;-90
2023/01/07 11:14:45;;;;;;;37.05;20.62;;;;;;;7.01;100.00;100802.79;3456307;83;99111;-91
2023/01/07 11:19:51;;;;;;;40.52;21.07;;;;;;;7.06;100.00;100798.45;3453130;85;33360;-92
2023/01/07 11:24:57;;;;;;;37.00;20.85;;;;;;;7.11;100.00;100791.94;3444384;84;98765;-94
2023/01/07 11:30:12;;;;;;;36.90;21.33;;;;;;;7.16;100.00;100786.23;3449326;83;25774;-93
2023/01/07 11:35:20;;;;;;;36.83;20.87;;;;;;;7.23;100.00;100778.22;3447372;85;98593;-93
2023/01/07 11:40:28;;;;;;;42.88;24.55;;;;;;;7.28;100.00;100770.58;3455923;85;32954;-94
2023/01/07 11:45:50;;;;;;;36.55;20.97;;;;;;;7.36;100.00;100766.89;3458525;84;98686;-91
2023/01/07 11:50:58;;;;;;;42.33;23.32;;;;;;;7.47;100.00;100765.84;3462067;85;32814;-92
2023/01/07 11:56:22;;;;;;;44.33;23.93;;;;;;;7.57;100.00;100748.89;3464482;83;98386;-93
2023/01/07 12:01:23;;;;;;;56.73;29.87;;;;;;;7.66;100.00;100745.44;3457385;84;99091;-92
2023/01/07 12:06:34;;;;;;;54.47;29.60;;;;;;;7.74;100.00;100744.50;3468289;83;31578;-92
2023/01/07 12:11:38;;;;;;;52.90;28.57;;;;;;;7.80;100.00;100743.09;3344752;87;98695;-93
2023/01/07 12:16:40;;;;;;;46.83;25.68;;;;;;;7.86;100.00;100742.47;3387668;87;32861;-93
2023/01/07 12:21:58;;;;;;;48.87;26.07;;;;;;;7.88;100.00;100728.42;3329952;87;98239;-92
2023/01/07 12:27:04;;;;;;;51.18;26.80;;;;;;;7.95;100.00;100728.59;3327268;87;32913;-92
2023/01/07 12:32:15;;;;;;;;;;;;;;;7.93;100.00;100719.95;3326662;87;99015;-92
2023/01/07 12:37:38;;;;;;;51.80;27.55;;;;;;;7.91;100.00;100714.81;3289115;89;32955;-92
2023/01/07 12:42:44;;;;;;;52.95;28.92;;;;;;;7.92;100.00;100710.14;3281409;87;99144;-90
2023/01/07 12:47:52;;;;;;;44.67;26.45;;;;;;;7.98;100.00;100707.36;3376623;86;26360;-91
2023/01/07 12:53:31;;;;;;;42.05;25.17;;;;;;;8.05;100.00;100703.41;3315235;87;98747;-93
2023/01/07 12:58:46;;;;;;;52.55;29.07;;;;;;;8.12;100.00;100699.50;3394192;86;33488;-92
2023/01/07 13:04:06;;;;;;;50.03;27.15;;;;;;;8.17;100.00;100693.73;3329433;87;98753;-91
2023/01/07 13:09:56;;;;;;;54.73;30.90;;;;;;;8.22;100.00;100687.45;3333672;87;31186;-93
2023/01/07 13:15:01;;;;;;;54.60;28.80;;;;;;;8.27;100.00;100690.48;3350510;86;98539;-93
2023/01/07 13:20:12;;;;;;;51.68;31.52;;;;;;;8.31;100.00;100688.07;3337084;86;32964;-93
2023/01/07 13:25:48;;;;;;;53.50;31.10;;;;;;;8.35;100.00;100684.04;3332801;86;98951;-91
2023/01/07 13:31:20;;;;;;;56.17;29.73;;;;;;;8.41;100.00;100689.47;3274146;86;26194;-90
2023/01/07 13:36:45;;;;;;;47.15;27.80;;;;;;;8.46;100.00;100689.98;3340389;87;33638;-91
2023/01/07 13:42:18;;;;;;;48.87;29.10;;;;;;;8.49;100.00;100692.58;3328648;87;99131;-92
2023/01/07 13:47:23;;;;;;;49.30;29.57;;;;;;;8.50;100.00;100693.61;3325301;86;32961;-93
2023/01/07 13:52:31;;;;;;;49.83;30.00;;;;;;;8.50;100.00;100690.86;3332667;87;98605;-92
2023/01/07 13:57:37;;;;;;;53.90;31.62;;;;;;;8.55;100.00;100686.48;3350842;86;31230;-94
2023/01/07 14:02:56;;;;;;;56.13;32.53;;;;;;;8.56;100.00;100679.06;3478456;83;98900;-92
2023/01/07 14:08:00;;;;;;;48.42;28.47;;;;;;;8.57;100.00;100669.67;3495501;82;33373;-92
2023/01/07 14:13:27;;;;;;;47.03;29.90;;;;;;;8.50;100.00;100669.52;3480314;83;98827;-90
2023/01/07 14:18:35;;;;;;;;;;;;;;;8.49;100.00;100671.45;3485575;83;26081;-90
2023/01/07 14:23:50;;;;;;;40.50;24.87;;;;;;;8.47;100.00;100668.84;3480234;83;84409;-91
2023/01/07 14:29:08;;;;;;;44.08;28.47;;;;;;;8.46;100.00;100676.27;3512330;83;33438;-90
2023/01/07 14:34:25;;;;;;;38.67;26.05;;;;;;;8.44;100.00;100670.34;3475250;83;99035;-91
2023/01/07 14:39:37;;;;;;;40.63;25.82;;;;;;;8.46;100.00;100668.63;3487728;83;32897;-88
2023/01/07 14:44:38;;;;;;;40.73;26.25;;;;;;;8.44;100.00;100668.17;3476439;83;99039;-89
2023/01/07 14:50:05;;;;;;;39.10;25.27;;;;;;;8.48;100.00;100667.69;3492512;83;31653;-89
2023/01/07 14:55:14;;;;;;;40.15;24.18;;;;;;;8.45;100.00;100662.93;3396984;84;98653;-91
2023/01/07 15:00:49;;;;;;;34.18;21.77;;;;;;;8.48;100.00;100657.52;3449585;83;33373;-89
2023/01/07 15:06:14;;;;;;;34.37;22.33;;;;;;;8.48;100.00;100653.97;3460260;83;98453;-88
2023/01/07 15:16:48;;;;;;;34.13;20.37;;;;;;;8.47;100.00;100647.70;3453922;83;32142;-88
2023/01/07 15:21:57;;;;;;;36.50;19.98;;;;;;;8.46;100.00;100650.20;3448446;85;98843;-89
2023/01/07 15:27:12;;;;;;;36.65;24.25;;;;;;;8.43;100.00;100652.31;3463726;83;32885;-89
2023/01/07 15:32:49;;;;;;;39.03;27.15;;;;;;;8.42;100.00;100654.03;3456969;85;98723;-88
2023/01/07 15:37:50;;;;;;;;;;;;;;;8.40;100.00;100646.75;3452950;85;26363;-89
2023/01/07 15:42:55;;;;;;;28.80;17.87;;;;;;;8.35;100.00;100643.68;3457427;83;84663;-90
2023/01/07 15:48:06;;;;;;;29.95;17.15;;;;;;;8.35;100.00;100649.77;3465915;85;33063;-89
2023/01/07 15:53:16;;;;;;;27.67;16.67;;;;;;;8.34;100.00;100646.80;3461186;85;99014;-89
2023/01/07 15:58:25;;;;;;;29.60;18.20;;;;;;;8.35;100.00;100649.77;3451276;84;33432;-91
2023/01/07 16:03:27;;;;;;;28.70;17.67;;;;;;;8.30;100.00;100641.21;3452328;83;99073;-89
2023/01/07 16:08:31;;;;;;;30.97;16.75;;;;;;;8.30;100.00;100639.84;3458171;84;32951;-89
2023/01/07 16:13:33;;;;;;;28.95;17.32;;;;;;;8.27;100.00;100636.45;3459050;83;99101;-89
2023/01/07 16:18:34;;;;;;;32.73;19.70;;;;;;;8.26;100.00;100642.29;3455911;85;32916;-89
2023/01/07 16:23:37;;;;;;;31.37;17.73;;;;;;;8.25;100.00;100638.77;3450623;83;98917;-89
2023/01/07 16:29:01;;;;;;;28.67;18.73;;;;;;;8.24;100.00;100639.89;3458258;85;31457;-89
2023/01/07 16:34:17;;;;;;;42.00;21.90;;;;;;;8.25;100.00;100634.66;3451929;84;99000;-90
2023/01/07 16:39:34;;;;;;;30.95;19.82;;;;;;;8.24;100.00;100627.56;3462873;83;31995;-89
2023/01/07 16:44:48;;;;;;;37.73;21.17;;;;;;;8.23;100.00;100628.72;3454181;84;98883;-88
2023/01/07 16:49:55;;;;;;;45.00;24.52;;;;;;;8.19;100.00;100620.16;3462524;83;32988;-90
2023/01/07 16:54:56;;;;;;;49.50;26.87;;;;;;;8.18;100.00;100621.33;3445150;84;98715;-89
2023/01/07 17:00:00;;;;;;;35.47;21.97;;;;;;;8.16;100.00;100623.05;3457678;84;32205;-90
2023/01/07 17:05:25;;;;;;;37.20;22.32;;;;;;;8.11;100.00;100622.50;3454049;83;98583;-89
2023/01/07 17:10:30;;;;;;;41.13;24.82;;;;;;;8.06;100.00;100605.77;3463753;83;31486;-91
2023/01/07 17:15:38;;;;;;;44.35;24.80;;;;;;;8.01;100.00;100606.03;3452515;83;98735;-89
2023/01/07 17:20:50;;;;;;;45.73;24.27;;;;;;;8.01;100.00;100614.84;3452260;84;25833;-90
2023/01/07 17:26:11;;;;;;;76.13;43.17;;;;;;;7.98;100.00;100605.95;3449503;84;98473;-89
2023/01/07 17:31:12;;;;;;;89.83;54.03;;;;;;;7.96;100.00;100607.67;3449054;83;99007;-89
2023/01/07 17:36:19;;;;;;;58.83;33.93;;;;;;;7.93;100.00;100600.73;3462043;85;31702;-88
2023/01/07 17:46:41;;;;;;;46.92;28.90;;;;;;;7.85;100.00;100595.66;3458000;83;32904;-88
2023/01/07 17:51:46;;;;;;;42.50;23.47;;;;;;;7.82;100.00;100591.47;3446671;84;99228;-89
2023/01/07 17:56:47;;;;;;;46.42;25.85;;;;;;;7.83;100.00;100597.16;3462060;83;32948;-90
2023/01/07 18:01:51;;;;;;;54.38;29.70;;;;;;;7.83;100.00;100599.34;3464781;83;99121;-91
2023/01/07 18:06:52;;;;;;;60.30;31.55;;;;;;;7.81;100.00;100598.09;3457881;83;33369;-90
2023/01/07 18:17:12;;;;;;;95.40;58.40;;;;;;;7.69;100.00;100589.98;3455353;83;33001;-91
2023/01/07 18:22:12;;;;;;;101.37;57.83;;;;;;;7.65;100.00;100590.45;3461096;84;99046;-89
2023/01/07 18:27:16;;;;;;;85.20;50.33;;;;;;;7.59;100.00;100589.91;3466305;84;31680;-90
2023/01/07 18:32:17;;;;;;;64.80;39.88;;;;;;;7.54;100.00;100589.39;3463632;84;98457;-90
2023/01/07 18:37:18;;;;;;;61.30;36.77;;;;;;;7.47;100.00;100590.00;3460469;84;32153;-91
2023/01/07 18:42:19;;;;;;;65.80;42.40;;;;;;;7.42;100.00;100588.11;3459884;83;98642;-92
2023/01/07 18:47:19;;;;;;;79.83;48.07;;;;;;;7.38;100.00;100596.23;3459365;84;31587;-93
2023/01/07 18:52:22;;;;;;;91.63;56.23;;;;;;;7.32;100.00;100587.25;3445837;84;98788;-93
2023/01/07 18:57:23;;;;;;;86.83;47.73;;;;;;;7.28;100.00;100584.98;3463314;84;25846;-90
2023/01/07 19:02:24;;;;;;;81.47;48.07;;;;;;;7.22;100.00;100584.46;3460516;83;98960;-92
2023/01/07 19:07:25;;;;;;;87.00;52.77;;;;;;;7.11;100.00;100579.83;3455920;83;31709;-91
2023/01/07 19:12:25;;;;;;;84.93;48.33;;;;;;;7.07;100.00;100580.30;3451415;84;98751;-90
2023/01/07 19:17:26;;;;;;;62.03;36.57;;;;;;;6.98;100.00;100580.45;3459534;84;32173;-92
2023/01/07 19:22:27;;;;;;;63.58;36.75;;;;;;;6.91;100.00;100574.80;3440224;85;99134;-89
2023/01/07 19:27:28;;;;;;;55.98;32.78;;;;;;;6.84;100.00;100574.61;3453030;84;31671;-91
2023/01/07 19:32:29;;;;;;;51.30;29.60;;;;;;;6.78;100.00;100573.83;3452605;84;99010;-91
2023/01/07 19:37:30;;;;;;;52.17;32.53;;;;;;;6.70;100.00;100574.20;3449813;84;35394;-90
2023/01/07 19:42:33;;;;;;;62.87;34.43;;;;;;;6.62;100.00;100567.50;3447991;83;98905;-91
2023/01/07 19:47:34;;;;;;;77.40;44.17;;;;;;;6.55;100.00;100561.84;3457962;84;25845;-93
2023/01/07 19:52:35;;;;;;;72.07;40.13;;;;;;;6.47;100.00;100564.94;3451442;84;99149;-89
2023/01/07 19:57:36;;;;;;;80.10;46.10;;;;;;;6.40;100.00;100559.83;3458502;83;25980;-89
2023/01/07 20:02:36;;;;;;;91.90;49.90;;;;;;;6.22;100.00;100542.89;3459358;84;99107;-90
2023/01/07 20:07:37;;;;;;;79.53;44.20;;;;;;;6.26;100.00;100552.55;3458850;84;34844;-90
2023/01/07 20:12:38;;;;;;;96.20;51.07;;;;;;;6.21;100.00;100549.50;3453717;83;98999;-88
2023/01/07 20:17:39;;;;;;;92.40;52.60;;;;;;;6.13;100.00;100542.80;3471296;85;35441;-89
2023/01/07 20:22:46;;;;;;;77.57;43.40;;;;;;;6.04;100.00;100542.13;3447556;85;98744;-88
2023/01/07 20:27:46;;;;;;;76.15;41.77;;;;;;;5.98;100.00;100531.20;3460866;84;25836;-88
2023/01/07 20:32:47;;;;;;;72.87;43.03;;;;;;;5.92;100.00;100524.39;3450986;84;99134;-89
2023/01/07 20:37:48;;;;;;;75.73;42.40;;;;;;;5.87;100.00;100516.42;3459102;83;35413;-89
2023/01/07 20:42:49;;;;;;;80.10;43.00;;;;;;;5.81;100.00;100510.97;3444683;84;99084;-88
2023/01/07 20:47:49;;;;;;;74.43;41.07;;;;;;;5.75;100.00;100506.30;3458553;84;34844;-90
2023/01/07 20:52:50;;;;;;;73.80;41.10;;;;;;;5.71;100.00;100513.58;3453183;83;99124;-88
2023/01/07 20:57:51;;;;;;;70.53;38.07;;;;;;;5.66;100.00;100522.55;3456870;84;34858;-89
2023/01/07 21:02:52;;;;;;;71.02;38.15;;;;;;;5.62;100.00;100510.74;3454590;83;98914;-88
2023/01/07 21:07:53;;;;;;;80.15;38.67;;;;;;;5.57;100.00;100521.89;3442198;85;34842;-89
2023/01/07 21:12:54;;;;;;;90.23;53.17;;;;;;;5.51;100.00;100507.66;3459766;83;98665;-89
2023/01/07 21:17:55;;;;;;;72.27;42.60;;;;;;;5.37;100.00;100484.57;3463177;85;32759;-89
2023/01/07 21:22:56;;;;;;;58.20;33.53;;;;;;;5.39;100.00;100490.48;3454590;84;98749;-89
2023/01/07 21:27:58;;;;;;;61.07;34.90;;;;;;;5.33;100.00;100484.46;3454720;84;32568;-86
2023/01/07 21:32:58;;;;;;;50.50;29.63;;;;;;;5.29;100.00;100475.35;3434170;85;98919;-89
2023/01/07 21:37:59;;;;;;;55.27;31.63;;;;;;;5.24;100.00;100459.80;3462683;84;32436;-89
2023/01/07 21:43:00;;;;;;;60.90;32.73;;;;;;;5.09;100.00;100440.00;3446128;84;98998;-88
2023/01/07 21:48:01;;;;;;;82.13;48.07;;;;;;;5.14;100.00;100455.56;3460623;83;33535;-90
2023/01/07 21:53:02;;;;;;;105.57;62.60;;;;;;;5.09;100.00;100448.99;3453459;85;98948;-90
2023/01/07 21:58:02;;;;;;;70.52;40.85;;;;;;;5.04;100.00;100439.66;3463377;84;32470;-90
2023/01/07 22:03:03;;;;;;;59.60;36.13;;;;;;;5.01;100.00;100427.25;3443383;84;98593;-89
2023/01/07 22:08:05;;;;;;;62.83;39.03;;;;;;;4.97;100.00;100420.31;3454509;83;25841;-89
2023/01/07 22:13:06;;;;;;;57.60;34.00;;;;;;;4.95;100.00;100408.97;3456595;83;98860;-88
2023/01/07 22:18:06;;;;;;;67.47;40.20;;;;;;;4.90;100.00;100401.56;3454759;85;26405;-88
2023/01/07 22:23:14;;;;;;;61.53;33.40;;;;;;;4.86;100.00;100392.48;3457861;84;98722;-90
2023/01/07 22:28:18;;;;;;;58.85;33.33;;;;;;;4.82;100.00;100395.66;3455638;83;32476;-88
2023/01/07 22:33:21;;;;;;;60.13;31.90;;;;;;;4.72;100.00;100380.55;3436975;84;99019;-86
2023/01/07 22:38:25;;;;;;;55.65;30.48;;;;;;;4.72;100.00;100383.27;3461099;85;32250;-87
2023/01/07 22:43:27;;;;;;;52.17;31.15;;;;;;;4.70;100.00;100390.20;3451172;85;98611;-87
2023/01/07 22:48:32;;;;;;;53.87;29.63;;;;;;;4.64;100.00;100388.24;3461578;83;26403;-85
2023/01/07 22:53:33;;;;;;;58.50;32.83;;;;;;;4.63;100.00;100383.16;3459986;84;99338;-88
2023/01/07 22:58:34;;;;;;;54.27;30.37;;;;;;;4.57;100.00;100370.85;3459672;83;26415;-89
2023/01/07 23:03:35;;;;;;;49.83;28.52;;;;;;;4.53;100.00;100365.87;3454042;85;98968;-87
2023/01/07 23:08:36;;;;;;;59.70;28.30;;;;;;;4.51;100.00;100358.58;3465426;83;26077;-90
2023/01/07 23:13:37;;;;;;;54.27;29.03;;;;;;;4.49;100.00;100356.77;3427853;83;99058;-90
2023/01/07 23:18:38;;;;;;;53.07;27.27;;;;;;;4.46;100.00;100345.17;3459155;85;26437;-88
2023/01/07 23:23:38;;;;;;;55.40;29.13;;;;;;;4.46;100.00;100350.62;3451669;84;98930;-89
2023/01/07 23:28:40;;;;;;;57.63;30.47;;;;;;;4.44;100.00;100344.17;3460281;84;26369;-88
2023/01/07 23:33:40;;;;;;;57.03;31.57;;;;;;;4.42;100.00;100332.02;3451818;84;98763;-88